createdAt,value
2022-08-03T00:02:18.010Z,69.90
2022-08-03T00:04:46.312Z,66.80
2022-08-03T00:07:14.341Z,71.10
2022-08-03T00:09:42.852Z,73.70
2022-08-03T00:12:12.146Z,74.70
2022-08-03T00:14:40.008Z,73.70
2022-08-03T00:17:07.879Z,68.50
2022-08-03T00:19:35.787Z,63.80
2022-08-03T00:22:03.790Z,64.20
2022-08-03T00:24:32.150Z,65.10
2022-08-03T00:26:59.955Z,74.30
2022-08-03T00:29:29.176Z,68.10
2022-08-03T00:31:59.593Z,81.10
2022-08-03T00:34:57.300Z,78.40
2022-08-03T00:37:16.447Z,66.30
2022-08-03T00:39:46.197Z,64.60
2022-08-03T00:42:14.664Z,63.60
2022-08-03T00:44:44.830Z,69.90
2022-08-03T00:47:13.024Z,72.00
2022-08-03T00:49:41.500Z,71.20
2022-08-03T00:52:09.921Z,75.80
2022-08-03T00:54:38.335Z,76.50
2022-08-03T00:57:06.286Z,69.50
2022-08-03T00:59:34.596Z,79.20
2022-08-03T01:02:03.783Z,76.80
2022-08-03T01:04:31.803Z,70.70
2022-08-03T01:07:04.148Z,72.40
2022-08-03T01:09:37.861Z,67.00
2022-08-03T01:12:11.572Z,73.40
2022-08-03T01:14:42.141Z,68.40
2022-08-03T01:17:14.299Z,72.30
2022-08-03T01:19:48.271Z,77.60
2022-08-03T01:22:33.788Z,90.70
2022-08-03T01:25:06.118Z,90.70
2022-08-03T01:27:42.301Z,83.40
2022-08-03T01:30:12.375Z,81.60
2022-08-03T01:32:59.468Z,85.20
2022-08-03T01:35:30.805Z,87.40
2022-08-03T01:37:59.355Z,87.40
2022-08-03T01:40:28.784Z,91.20
2022-08-03T01:42:57.716Z,91.10
2022-08-03T01:45:27.668Z,92.60
2022-08-03T01:47:56.595Z,91.50
2022-08-03T01:50:25.804Z,81.90
2022-08-03T01:52:54.204Z,90.20
2022-08-03T01:55:23.660Z,93.00
2022-08-03T01:58:05.765Z,91.60
2022-08-03T02:00:36.318Z,92.20
2022-08-03T02:03:05.751Z,91.60
2022-08-03T02:05:33.875Z,82.60
2022-08-03T02:08:02.828Z,90.80
2022-08-03T02:10:35.293Z,90.00
2022-08-03T02:13:06.100Z,87.80
2022-08-03T02:15:34.524Z,90.20
2022-08-03T02:18:06.096Z,91.20
2022-08-03T02:20:36.391Z,90.90
2022-08-03T02:23:04.396Z,91.90
2022-08-03T02:25:33.285Z,87.40
2022-08-03T02:28:07.616Z,87.90
2022-08-03T02:30:38.521Z,90.50
2022-08-03T02:33:09.041Z,93.40
2022-08-03T02:35:38.069Z,92.30
2022-08-03T02:38:08.590Z,94.50
2022-08-03T02:40:37.351Z,94.10
2022-08-03T02:43:08.754Z,92.30
2022-08-03T02:45:37.051Z,94.70
2022-08-03T02:48:05.438Z,92.90
2022-08-03T02:50:35.605Z,94.20
2022-08-03T02:53:04.058Z,95.20
2022-08-03T02:55:32.936Z,93.90
2022-08-03T02:58:01.449Z,91.30
2022-08-03T03:00:30.536Z,89.70
2022-08-03T03:02:59.607Z,89.50
2022-08-03T03:05:55.485Z,89.80
2022-08-03T03:08:26.150Z,90.30
2022-08-03T03:10:57.243Z,91.90
2022-08-03T03:13:25.606Z,85.20
2022-08-03T03:15:53.917Z,90.00
2022-08-03T03:18:23.059Z,92.50
2022-08-03T03:20:52.513Z,91.60
2022-08-03T03:23:22.426Z,91.10
2022-08-03T03:25:50.664Z,91.30
2022-08-03T03:28:18.651Z,92.30
2022-08-03T03:30:53.153Z,95.00
2022-08-03T03:33:21.601Z,96.00
2022-08-03T03:35:49.500Z,95.90
2022-08-03T03:38:17.336Z,92.60
2022-08-03T03:40:46.493Z,93.20
2022-08-03T03:43:14.384Z,97.00
2022-08-03T03:45:42.520Z,98.50
2022-08-03T03:48:10.357Z,99.50
2022-08-03T03:50:40.882Z,99.90
2022-08-03T03:53:10.533Z,98.70
2022-08-03T03:55:58.914Z,98.20
2022-08-03T03:58:27.658Z,99.00
2022-08-03T04:00:55.547Z,98.60
2022-08-03T04:03:23.729Z,96.80
2022-08-03T04:06:09.241Z,95.50
2022-08-03T04:08:54.378Z,93.80
2022-08-03T04:11:30.401Z,94.10
2022-08-03T04:14:04.472Z,95.10
2022-08-03T04:16:33.479Z,94.70
2022-08-03T04:19:03.377Z,96.70
2022-08-03T04:21:31.582Z,96.00
2022-08-03T04:24:00.524Z,94.50
2022-08-03T04:26:30.136Z,92.30
2022-08-03T04:28:58.259Z,96.10
2022-08-03T04:31:28.327Z,95.10
2022-08-03T04:33:56.451Z,96.50
2022-08-03T04:36:25.942Z,96.40
2022-08-03T04:38:56.458Z,98.00
2022-08-03T04:41:26.043Z,97.00
2022-08-03T04:43:55.225Z,96.20
2022-08-03T04:46:24.407Z,96.10
2022-08-03T04:48:54.116Z,96.20
2022-08-03T04:51:22.183Z,94.50
2022-08-03T04:53:50.194Z,93.40
2022-08-03T04:56:18.305Z,92.70
2022-08-03T04:58:46.334Z,91.20
2022-08-03T05:01:14.228Z,89.50
2022-08-03T05:03:42.084Z,88.40
2022-08-03T05:06:11.773Z,89.30
2022-08-03T05:08:46.149Z,86.30
2022-08-03T05:11:15.416Z,79.50
2022-08-03T05:13:43.285Z,80.50
2022-08-03T05:16:11.833Z,78.70
2022-08-03T05:18:39.678Z,73.10
2022-08-03T05:21:07.569Z,69.80
2022-08-03T05:23:37.837Z,66.20
2022-08-03T05:26:05.707Z,58.10
2022-08-03T05:28:33.555Z,56.60
2022-08-03T05:31:01.388Z,53.70
2022-08-03T05:33:29.208Z,46.50
2022-08-03T05:36:03.429Z,43.90
2022-08-03T05:38:35.125Z,42.10
2022-08-03T05:41:21.247Z,42.30
2022-08-03T05:43:52.066Z,39.60
2022-08-03T05:46:20.557Z,39.70
2022-08-03T05:48:48.407Z,32.90
2022-08-03T05:51:16.227Z,30.40
2022-08-03T05:53:44.348Z,23.90
2022-08-03T05:56:16.018Z,21.50
2022-08-03T05:58:45.408Z,22.60
2022-08-03T06:01:13.331Z,24.70
2022-08-03T06:03:41.433Z,23.10
2022-08-03T06:06:09.321Z,20.90
2022-08-03T06:08:37.211Z,16.50
2022-08-03T06:11:05.152Z,16.50
2022-08-03T06:13:34.391Z,8.60
2022-08-03T06:16:02.323Z,1.00
2022-08-03T06:18:30.208Z,3.20
2022-08-03T06:20:58.027Z,2.10
2022-08-03T06:23:53.167Z,1.00
2022-08-03T06:26:22.780Z,1.00
2022-08-03T06:28:54.373Z,1.00
2022-08-03T06:31:23.837Z,1.00
2022-08-03T06:34:32.838Z,1.00
2022-08-03T06:36:39.592Z,1.00
2022-08-03T06:39:08.076Z,1.00
2022-08-03T06:41:37.494Z,1.00
2022-08-03T06:44:07.648Z,1.00
2022-08-03T06:46:35.620Z,1.00
2022-08-03T06:49:03.504Z,1.00
2022-08-03T06:52:05.656Z,1.00
2022-08-03T06:54:19.261Z,1.00
2022-08-03T06:56:47.101Z,1.00
2022-08-03T07:00:10.527Z,1.00
2022-08-03T07:02:04.574Z,1.00
2022-08-03T07:04:33.308Z,1.00
2022-08-03T07:07:01.134Z,1.00
2022-08-03T07:09:29.115Z,1.00
2022-08-03T07:11:57.058Z,1.00
2022-08-03T07:14:26.279Z,1.00
2022-08-03T07:16:54.120Z,1.00
2022-08-03T07:19:22.002Z,1.00
2022-08-03T07:21:49.830Z,1.00
2022-08-03T07:24:21.424Z,1.00
2022-08-03T07:26:49.321Z,1.00
2022-08-03T07:29:17.241Z,1.00
2022-08-03T07:31:46.455Z,1.00
2022-08-03T07:34:14.479Z,1.00
2022-08-03T07:36:42.319Z,1.00
2022-08-03T07:39:15.988Z,1.00
2022-08-03T07:41:46.068Z,1.00
2022-08-03T07:44:14.577Z,1.00
2022-08-03T07:46:42.446Z,1.00
2022-08-03T07:49:11.689Z,1.00
2022-08-03T07:51:39.809Z,1.00
2022-08-03T07:54:07.769Z,1.00
2022-08-03T07:56:35.621Z,1.00
2022-08-03T07:59:03.567Z,1.00
2022-08-03T08:01:32.808Z,1.00
2022-08-03T08:04:00.796Z,1.00
2022-08-03T08:06:31.732Z,1.00
2022-08-03T08:09:02.272Z,1.00
2022-08-03T08:11:30.132Z,1.00
2022-08-03T08:13:57.998Z,1.00
2022-08-03T08:16:25.844Z,1.00
2022-08-03T08:18:53.728Z,1.00
2022-08-03T08:21:21.555Z,1.00
2022-08-03T08:23:57.166Z,1.00
2022-08-03T08:26:25.872Z,1.00
2022-08-03T08:28:53.706Z,1.00
2022-08-03T08:31:21.549Z,99.90
2022-08-03T08:34:03.607Z,99.90
2022-08-03T08:36:32.840Z,99.90
2022-08-03T08:39:02.332Z,1.00
2022-08-03T08:41:33.700Z,99.90
2022-08-03T08:44:01.528Z,99.90
2022-08-03T08:46:30.766Z,99.90
2022-08-03T08:51:54.253Z,99.90
2022-08-03T08:54:19.101Z,99.90
2022-08-03T08:56:47.295Z,1.00
2022-08-03T08:59:15.719Z,1.00
2022-08-03T09:01:43.632Z,1.00
2022-08-03T09:04:12.230Z,1.00
2022-08-03T09:06:40.101Z,1.00
2022-08-03T09:09:08.240Z,1.00
2022-08-03T09:11:52.458Z,1.00
2022-08-03T09:14:39.413Z,1.00
2022-08-03T09:17:10.348Z,1.00
2022-08-03T09:20:04.244Z,1.00
2022-08-03T09:22:33.370Z,1.00
2022-08-03T09:25:23.197Z,1.00
2022-08-03T09:27:53.332Z,1.00
2022-08-03T09:30:33.868Z,1.00
2022-08-03T09:33:03.168Z,1.00
2022-08-03T09:38:19.685Z,1.00
2022-08-03T09:40:47.515Z,1.00
2022-08-03T09:43:19.718Z,1.00
2022-08-03T09:45:47.646Z,1.00
2022-08-03T09:48:22.464Z,1.00
2022-08-03T09:50:58.657Z,1.00
2022-08-03T09:53:26.999Z,1.00
2022-08-03T09:56:33.263Z,1.00
2022-08-03T09:58:47.556Z,1.00
2022-08-03T10:01:24.494Z,1.00
2022-08-03T10:04:03.182Z,1.00
2022-08-03T10:06:32.444Z,1.00
2022-08-03T10:09:07.590Z,1.00
2022-08-03T10:11:40.884Z,1.00
2022-08-03T10:14:18.717Z,1.00
2022-08-03T10:16:47.398Z,1.00
2022-08-03T10:19:15.734Z,1.00
2022-08-03T10:21:47.565Z,1.00
2022-08-03T10:24:16.834Z,1.00
2022-08-03T10:26:49.852Z,1.00
2022-08-03T10:29:22.333Z,1.00
2022-08-03T10:31:57.375Z,1.00
2022-08-03T10:34:27.580Z,1.00
2022-08-03T10:36:57.393Z,1.00
2022-08-03T10:39:28.490Z,1.00
2022-08-03T10:41:58.643Z,1.00
2022-08-03T10:44:32.010Z,1.00
2022-08-03T10:47:00.121Z,1.00
2022-08-03T10:49:34.536Z,1.00
2022-08-03T10:52:10.378Z,1.00
2022-08-03T10:55:10.726Z,1.00
2022-08-03T10:57:45.854Z,1.00
2022-08-03T11:00:18.868Z,1.00
2022-08-03T11:03:17.607Z,1.00
2022-08-03T11:05:46.111Z,1.00
2022-08-03T11:08:30.468Z,1.00
2022-08-03T11:10:59.888Z,1.00
2022-08-03T11:13:31.098Z,1.00
2022-08-03T11:16:02.443Z,1.00
2022-08-03T11:18:32.752Z,1.00
2022-08-03T11:21:01.342Z,1.00
2022-08-03T11:24:02.889Z,1.00
2022-08-03T11:26:33.258Z,1.00
2022-08-03T11:29:16.018Z,1.00
2022-08-03T11:31:51.034Z,1.00
2022-08-03T11:34:19.585Z,1.00
2022-08-03T11:37:06.308Z,1.00
2022-08-03T11:39:40.376Z,1.00
2022-08-03T11:42:23.068Z,1.00
2022-08-03T11:44:51.209Z,1.00
2022-08-03T11:47:21.498Z,1.00
2022-08-03T11:49:50.033Z,1.00
2022-08-03T11:52:18.430Z,1.00
2022-08-03T11:54:46.580Z,1.00
2022-08-03T11:59:10.818Z,1.00
2022-08-03T12:00:21.281Z,1.00
2022-08-03T12:03:10.570Z,1.00
2022-08-03T12:05:51.896Z,1.00
2022-08-03T12:08:30.182Z,1.00
2022-08-03T12:10:58.562Z,1.00
2022-08-03T12:14:37.373Z,1.00
2022-08-03T12:16:18.781Z,1.00
2022-08-03T12:18:46.736Z,1.00
2022-08-03T12:21:16.514Z,1.00
2022-08-03T12:23:44.427Z,1.00
2022-08-03T12:26:12.251Z,1.00
2022-08-03T12:28:49.752Z,1.00
2022-08-03T12:31:17.980Z,1.00
2022-08-03T12:33:59.595Z,1.00
2022-08-03T12:36:29.335Z,1.00
2022-08-03T12:38:57.968Z,1.00
2022-08-03T12:41:30.083Z,1.00
2022-08-03T12:43:57.991Z,1.00
2022-08-03T12:46:30.844Z,1.00
2022-08-03T12:48:59.190Z,1.00
2022-08-03T12:51:27.885Z,1.00
2022-08-03T12:53:57.897Z,1.00
2022-08-03T12:56:25.747Z,1.00
2022-08-03T12:58:54.082Z,1.00
2022-08-03T13:01:24.474Z,1.00
2022-08-03T13:03:54.523Z,1.00
2022-08-03T13:06:23.809Z,1.00
2022-08-03T13:09:02.087Z,1.00
2022-08-03T13:11:57.719Z,1.00
2022-08-03T13:14:20.315Z,1.00
2022-08-03T13:16:48.738Z,1.00
2022-08-03T13:19:16.551Z,1.00
2022-08-03T13:21:53.406Z,1.00
2022-08-03T13:24:32.448Z,1.00
2022-08-03T13:28:01.377Z,1.00
2022-08-03T13:29:50.567Z,1.00
2022-08-03T13:32:18.404Z,1.00
2022-08-03T13:34:46.301Z,1.00
2022-08-03T13:37:14.351Z,1.00
2022-08-03T13:39:57.225Z,1.00
2022-08-03T13:42:29.354Z,1.00
2022-08-03T13:44:57.292Z,1.00
2022-08-03T13:47:25.154Z,1.00
2022-08-03T13:49:59.373Z,1.00
2022-08-03T13:52:28.568Z,1.00
2022-08-03T13:54:56.421Z,1.00
2022-08-03T13:58:02.244Z,1.00
2022-08-03T14:00:26.553Z,1.00
2022-08-03T14:03:02.877Z,1.00
2022-08-03T14:05:32.667Z,1.00
2022-08-03T14:08:04.169Z,1.00
2022-08-03T14:10:33.341Z,1.00
2022-08-03T14:13:01.281Z,1.00
2022-08-03T14:15:30.569Z,1.00
2022-08-03T14:17:59.011Z,1.00
2022-08-03T14:20:38.598Z,1.00
2022-08-03T14:23:15.082Z,1.00
2022-08-03T14:25:51.811Z,1.00
2022-08-03T14:28:22.244Z,1.00
2022-08-03T14:30:52.029Z,1.00
2022-08-03T14:33:19.998Z,1.00
2022-08-03T14:35:47.896Z,1.00
2022-08-03T14:38:16.157Z,1.00
2022-08-03T14:40:44.191Z,1.00
2022-08-03T14:43:12.161Z,1.00
2022-08-03T14:45:40.101Z,1.00
2022-08-03T14:49:02.708Z,1.00
2022-08-03T14:50:57.194Z,1.00
2022-08-03T14:53:25.138Z,1.00
2022-08-03T14:55:53.614Z,1.00
2022-08-03T14:58:22.419Z,1.00
2022-08-03T15:00:50.791Z,1.00
2022-08-03T15:03:23.406Z,1.00
2022-08-03T15:05:51.987Z,1.00
2022-08-03T15:08:19.903Z,1.00
2022-08-03T15:10:48.400Z,1.00
2022-08-03T15:13:17.194Z,1.00
2022-08-03T15:15:45.073Z,1.00
2022-08-03T15:18:13.069Z,1.00
2022-08-03T15:20:45.369Z,1.00
2022-08-03T15:23:14.139Z,1.00
2022-08-03T15:26:31.752Z,1.00
2022-08-03T15:28:30.246Z,1.00
2022-08-03T15:30:58.263Z,1.00
2022-08-03T15:33:26.134Z,1.00
2022-08-03T15:35:56.150Z,1.00
2022-08-03T15:38:25.777Z,1.00
2022-08-03T15:40:54.424Z,1.00
2022-08-03T15:43:22.634Z,1.00
2022-08-03T15:46:19.132Z,1.00
2022-08-03T15:48:38.620Z,1.00
2022-08-03T15:51:08.255Z,1.00
2022-08-03T15:53:36.428Z,1.00
2022-08-03T15:56:09.998Z,1.00
2022-08-03T15:59:10.622Z,1.00
2022-08-03T16:01:28.472Z,1.00
2022-08-03T16:03:56.399Z,1.00
2022-08-03T16:06:29.828Z,1.00
2022-08-03T16:09:03.551Z,1.00
2022-08-03T16:11:31.409Z,1.00
2022-08-03T16:14:12.930Z,1.00
2022-08-03T16:16:47.373Z,1.00
2022-08-03T16:19:15.277Z,1.00
2022-08-03T16:21:48.425Z,1.00
2022-08-03T16:24:17.539Z,1.00
2022-08-03T16:26:47.798Z,1.00
2022-08-03T16:29:23.023Z,1.00
2022-08-03T16:31:51.975Z,1.00
2022-08-03T16:34:20.330Z,1.00
2022-08-03T16:36:49.674Z,1.00
2022-08-03T16:39:17.604Z,1.00
2022-08-03T16:41:54.507Z,1.00
2022-08-03T16:44:29.536Z,1.00
2022-08-03T16:46:57.451Z,1.00
2022-08-03T16:49:55.543Z,1.00
2022-08-03T16:52:16.798Z,1.00
2022-08-03T16:54:53.896Z,1.00
2022-08-03T16:57:56.407Z,1.00
2022-08-03T17:00:11.683Z,1.00
2022-08-03T17:02:48.050Z,1.00
2022-08-03T17:05:16.174Z,1.00
2022-08-03T17:07:47.011Z,1.00
2022-08-03T17:10:21.958Z,1.00
2022-08-03T17:12:54.866Z,1.00
2022-08-03T17:15:51.703Z,1.00
2022-08-03T17:18:14.846Z,1.00
2022-08-03T17:20:42.944Z,1.00
2022-08-03T17:23:34.788Z,1.00
2022-08-03T17:26:04.856Z,1.00
2022-08-03T17:28:50.181Z,1.00
2022-08-03T17:31:32.254Z,1.00
2022-08-03T17:34:11.297Z,1.00
2022-08-03T17:37:05.528Z,1.00
2022-08-03T17:39:55.569Z,1.00
2022-08-03T17:42:26.962Z,1.00
2022-08-03T17:47:57.943Z,1.00
2022-08-03T17:50:29.745Z,1.00
2022-08-03T17:53:07.039Z,1.00
2022-08-03T17:55:57.093Z,1.00
2022-08-03T17:58:34.356Z,1.00
2022-08-03T18:01:59.545Z,1.00
2022-08-03T18:04:11.868Z,1.00
2022-08-03T18:10:06.181Z,1.00
2022-08-03T18:12:24.128Z,1.00
2022-08-03T18:15:01.197Z,1.00
2022-08-03T18:17:55.621Z,1.00
2022-08-03T18:20:31.305Z,1.00
2022-08-03T18:25:57.599Z,1.00
2022-08-03T18:28:27.825Z,1.00
2022-08-03T18:30:57.152Z,1.00
2022-08-03T18:34:16.449Z,1.00
2022-08-03T18:36:21.779Z,1.00
2022-08-03T18:39:06.186Z,1.00
2022-08-03T18:41:35.187Z,1.00
2022-08-03T18:44:09.066Z,1.00
2022-08-03T18:47:01.555Z,1.00
2022-08-03T18:49:41.456Z,1.00
2022-08-03T18:52:13.337Z,1.00
2022-08-03T18:55:01.050Z,1.00
2022-08-03T18:57:39.435Z,1.00
2022-08-03T19:00:14.214Z,1.00
2022-08-03T19:02:48.994Z,1.00
2022-08-03T19:05:18.376Z,1.00
2022-08-03T19:07:58.392Z,1.00
2022-08-03T19:10:30.919Z,1.00
2022-08-03T19:13:04.039Z,1.00
2022-08-03T19:15:37.054Z,1.00
2022-08-03T19:18:11.908Z,1.00
2022-08-03T19:20:46.765Z,1.00
2022-08-03T19:23:16.603Z,1.00
2022-08-03T19:25:44.879Z,1.00
2022-08-03T19:28:12.905Z,1.00
2022-08-03T19:30:46.449Z,1.00
2022-08-03T19:33:21.572Z,1.00
2022-08-03T19:35:55.450Z,1.00
2022-08-03T19:38:28.387Z,1.00
2022-08-03T19:40:59.538Z,1.00
2022-08-03T19:43:33.017Z,1.00
2022-08-03T19:46:20.354Z,1.00
2022-08-03T19:48:53.964Z,1.00
2022-08-03T19:51:56.637Z,1.00
2022-08-03T19:54:13.604Z,1.00
2022-08-03T19:56:45.111Z,1.00
2022-08-03T19:59:16.418Z,1.00
2022-08-03T20:01:50.795Z,1.00
2022-08-03T20:04:20.596Z,1.00
2022-08-03T20:06:49.672Z,1.00
2022-08-03T20:09:18.623Z,1.00
2022-08-03T20:11:48.145Z,1.00
2022-08-03T20:14:20.756Z,1.00
2022-08-03T20:16:55.829Z,1.00
2022-08-03T20:19:24.200Z,1.00
2022-08-03T20:22:00.588Z,1.00
2022-08-03T20:24:29.177Z,1.00
2022-08-03T20:26:58.071Z,1.00
2022-08-03T20:30:05.048Z,1.00
2022-08-03T20:32:19.321Z,1.00
2022-08-03T20:34:53.295Z,1.00
2022-08-03T20:37:21.440Z,1.00
2022-08-03T20:39:49.582Z,1.00
2022-08-03T20:42:21.082Z,1.00
2022-08-03T20:44:58.945Z,1.00
2022-08-03T20:47:36.449Z,1.00
2022-08-03T20:50:09.904Z,1.00
2022-08-03T20:52:49.317Z,1.00
2022-08-03T20:55:17.962Z,1.00
2022-08-03T20:57:51.569Z,1.00
2022-08-03T21:00:22.154Z,1.00
2022-08-03T21:02:51.597Z,1.00
2022-08-03T21:05:21.224Z,1.00
2022-08-03T21:08:07.957Z,1.00
2022-08-03T21:10:38.634Z,1.00
2022-08-03T21:12:57.898Z,1.00
2022-08-03T21:13:04.062Z,1.00
2022-08-03T21:13:05.549Z,1.00
2022-08-03T21:13:17.122Z,1.00
2022-08-03T21:16:11.963Z,1.00
2022-08-03T21:18:37.848Z,1.00
2022-08-03T21:21:07.177Z,1.00
2022-08-03T21:23:47.940Z,1.00
2022-08-03T21:26:17.794Z,1.00
2022-08-03T21:28:46.546Z,1.00
2022-08-03T21:31:14.456Z,1.00
2022-08-03T21:33:52.718Z,1.00
2022-08-03T21:36:20.673Z,1.00
2022-08-03T21:38:56.333Z,1.00
2022-08-03T21:41:24.745Z,1.00
2022-08-03T21:43:52.632Z,1.00
2022-08-03T21:46:20.876Z,1.00
2022-08-03T21:48:52.273Z,1.00
2022-08-03T21:51:24.655Z,1.00
2022-08-03T21:54:00.432Z,1.00
2022-08-03T21:56:35.886Z,1.00
2022-08-03T21:59:05.278Z,1.00
2022-08-03T22:01:34.489Z,1.00
2022-08-03T22:04:04.576Z,1.00
2022-08-03T22:06:36.133Z,1.00
2022-08-03T22:09:06.391Z,1.00
2022-08-03T22:11:34.833Z,1.00
2022-08-03T22:14:02.974Z,1.00
2022-08-03T22:16:30.970Z,1.00
2022-08-03T22:18:58.845Z,1.00
2022-08-03T22:21:36.105Z,1.00
2022-08-03T22:24:06.617Z,1.00
2022-08-03T22:26:35.816Z,1.00
2022-08-03T22:29:07.109Z,99.90
2022-08-03T22:31:57.476Z,1.00
2022-08-03T22:34:26.554Z,1.00
2022-08-03T22:37:00.026Z,1.00
2022-08-03T22:39:30.096Z,1.00
2022-08-03T22:41:58.754Z,1.00
2022-08-03T22:44:27.245Z,1.00
2022-08-03T22:46:55.405Z,1.00
2022-08-03T22:49:23.427Z,1.00
2022-08-03T22:51:52.555Z,1.00
2022-08-03T22:54:20.439Z,1.00
2022-08-03T22:56:50.156Z,1.00
2022-08-03T22:59:40.313Z,1.00
2022-08-03T23:02:20.448Z,1.00
2022-08-03T23:04:50.798Z,1.00
2022-08-03T23:07:21.090Z,1.00
2022-08-03T23:09:49.811Z,1.00
2022-08-03T23:12:20.637Z,1.00
2022-08-03T23:14:52.569Z,1.00
2022-08-03T23:17:21.525Z,1.00
2022-08-03T23:19:51.078Z,1.00
2022-08-03T23:22:30.051Z,1.00
2022-08-03T23:24:59.185Z,1.00
2022-08-03T23:27:29.085Z,1.00
2022-08-03T23:29:59.296Z,1.00
2022-08-03T23:32:27.610Z,1.00
2022-08-03T23:35:14.609Z,1.00
2022-08-03T23:38:04.805Z,1.00
2022-08-03T23:40:31.072Z,1.00
2022-08-03T23:43:02.067Z,1.00
2022-08-03T23:45:30.000Z,1.00
2022-08-03T23:47:57.854Z,1.00
2022-08-03T23:50:26.265Z,1.00
2022-08-03T23:52:56.738Z,1.00
2022-08-03T23:55:31.816Z,3.90
2022-08-03T23:58:04.761Z,2.60
